Shannon Hills, Arkansas
Current Conditions -  °F | °C
As of 5:53 PM on Saturday 22 Nov 2014 (Local Time) from KLIT Reporting Station
Overcast Overcast  
Wind Chill: 56°   Ceiling: 25000
Heat Index: 56°   Visibility: 10mi
Dew Point: 50°   Wind: 5mph
Humidity: 80%   Direction: 50°NE
Pressure: 30"   Gusts: NA
Location:  34.5918°N, 92.381°W
Report Text: KLIT 222353Z 05004KT 10SM FEW080 OVC250 13/10 A3000 RMK AO2 SLP161 T01330100 10194 20133 55003
Loading
Personal Weather Stations






























Interactive Weather Map New forecast layout! Learn more

10-Day Weather Forecast

Advertisements
Track Severe Weather on mobile